createdAt,value
2022-08-07T00:01:12.691Z,102610.78
2022-08-07T00:06:33.190Z,102602.97
2022-08-07T00:11:35.826Z,102608.19
2022-08-07T00:16:49.791Z,102589.88
2022-08-07T00:21:56.705Z,102600.38
2022-08-07T00:27:07.253Z,102589.97
2022-08-07T00:32:13.562Z,102590.81
2022-08-07T00:37:18.343Z,102586.50
2022-08-07T00:42:28.970Z,102589.13
2022-08-07T00:48:08.329Z,102583.91
2022-08-07T00:52:53.029Z,102579.53
2022-08-07T00:57:55.191Z,102583.03
2022-08-07T01:02:57.815Z,102584.81
2022-08-07T01:07:59.667Z,102584.84
2022-08-07T01:13:01.923Z,102583.97
2022-08-07T01:18:05.554Z,102585.72
2022-08-07T01:23:13.080Z,102584.84
2022-08-07T01:28:15.163Z,102584.84
2022-08-07T01:33:17.135Z,102582.25
2022-08-07T01:38:24.941Z,102578.81
2022-08-07T01:43:38.013Z,102575.28
2022-08-07T01:48:46.592Z,102564.91
2022-08-07T01:54:09.328Z,102566.63
2022-08-07T01:59:31.041Z,102562.28
2022-08-07T02:04:57.395Z,102568.41
2022-08-07T02:10:01.235Z,102567.53
2022-08-07T02:15:05.854Z,102559.69
2022-08-07T02:20:17.438Z,102561.47
2022-08-07T02:26:10.891Z,102560.56
2022-08-07T02:30:46.260Z,102563.19
2022-08-07T02:36:30.467Z,102561.50
2022-08-07T02:41:12.812Z,102550.97
2022-08-07T02:46:25.982Z,102560.63
2022-08-07T02:51:49.841Z,102551.91
2022-08-07T02:56:56.196Z,102550.16
2022-08-07T03:02:02.187Z,102542.34
2022-08-07T03:07:10.380Z,102541.47
2022-08-07T03:12:19.186Z,102546.66
2022-08-07T03:17:24.028Z,102540.56
2022-08-07T03:22:29.507Z,102539.69
2022-08-07T03:27:59.426Z,102532.75
2022-08-07T03:32:58.554Z,102526.66
2022-08-07T03:38:04.807Z,102529.28
2022-08-07T03:43:13.757Z,102528.41
2022-08-07T03:48:16.609Z,102525.81
2022-08-07T03:53:18.345Z,102524.94
2022-08-07T03:59:07.132Z,102515.34
2022-08-07T04:03:55.303Z,102501.38
2022-08-07T04:08:57.862Z,102507.44
2022-08-07T04:14:10.377Z,102517.88
2022-08-07T04:19:51.184Z,102519.59
2022-08-07T04:24:48.841Z,102529.16
2022-08-07T04:30:02.230Z,102537.91
2022-08-07T04:35:11.432Z,102549.16
2022-08-07T04:40:13.404Z,102544.81
2022-08-07T04:45:19.708Z,102550.81
2022-08-07T04:50:39.592Z,102556.72
2022-08-07T04:58:11.332Z,102547.88
2022-08-07T05:01:36.647Z,102553.88
2022-08-07T05:07:19.770Z,102552.03
2022-08-07T05:12:30.339Z,102549.28
2022-08-07T05:17:52.969Z,102553.16
2022-08-07T05:23:00.079Z,102541.28
2022-08-07T05:28:20.191Z,102549.88
2022-08-07T05:33:27.108Z,102557.97
2022-08-07T05:38:59.516Z,102552.88
2022-08-07T05:44:11.845Z,102557.97
2022-08-07T05:49:14.943Z,102562.16
2022-08-07T05:54:30.785Z,102558.59
2022-08-07T05:59:46.571Z,102561.88
2022-08-07T06:05:10.808Z,102566.97
2022-08-07T06:10:17.505Z,102563.31
2022-08-07T06:15:20.916Z,102563.00
2022-08-07T06:20:38.130Z,102560.31
2022-08-07T06:25:54.859Z,102568.34
2022-08-07T06:30:58.740Z,102563.00
2022-08-07T06:36:12.179Z,102558.38
2022-08-07T06:42:00.737Z,102563.56
2022-08-07T06:46:53.567Z,102557.28
2022-08-07T06:52:15.969Z,102559.53
2022-08-07T06:57:18.373Z,102565.56
2022-08-07T07:02:48.963Z,102553.91
2022-08-07T07:07:59.218Z,102563.31
2022-08-07T07:13:17.120Z,102565.91
2022-08-07T07:18:47.729Z,102564.72
2022-08-07T07:24:05.971Z,102555.53
2022-08-07T07:29:40.118Z,102570.06
2022-08-07T07:34:40.873Z,102569.28
2022-08-07T07:39:55.018Z,102564.00
2022-08-07T07:45:01.038Z,102553.19
2022-08-07T07:50:33.019Z,102560.34
2022-08-07T07:55:37.126Z,102563.56
2022-08-07T08:00:41.253Z,102560.06
2022-08-07T08:05:53.960Z,102563.56
2022-08-07T08:10:57.896Z,102558.94
2022-08-07T08:16:02.403Z,102559.66
2022-08-07T08:21:07.563Z,102552.44
2022-08-07T08:26:30.566Z,102549.00
2022-08-07T08:31:58.759Z,102555.13
2022-08-07T08:36:58.560Z,102564.09
2022-08-07T08:42:06.389Z,102558.22
2022-08-07T08:47:52.956Z,102564.94
2022-08-07T08:53:09.686Z,102551.06
2022-08-07T08:58:28.550Z,102540.47
2022-08-07T09:03:48.050Z,102542.63
2022-08-07T09:09:20.628Z,102555.19
2022-08-07T09:14:36.793Z,102539.94
2022-08-07T09:20:34.925Z,102541.09
2022-08-07T09:25:33.400Z,102537.47
2022-08-07T09:30:54.535Z,102536.66
2022-08-07T09:36:11.915Z,102517.25
2022-08-07T09:41:36.211Z,102523.34
2022-08-07T09:47:51.766Z,102517.09
2022-08-07T09:52:56.834Z,102512.09
2022-08-07T09:58:32.155Z,102521.03
2022-08-07T10:04:05.724Z,102520.63
2022-08-07T10:09:05.676Z,102526.13
2022-08-07T10:14:11.223Z,102520.13
2022-08-07T10:19:53.836Z,102512.72
2022-08-07T10:25:04.834Z,102524.63
2022-08-07T10:30:27.666Z,102513.91
2022-08-07T10:35:53.588Z,102509.38
2022-08-07T10:41:04.473Z,102502.88
2022-08-07T10:46:15.590Z,102499.91
2022-08-07T10:51:57.423Z,102492.84
2022-08-07T10:57:03.352Z,102477.97
2022-08-07T11:02:32.729Z,102467.22
2022-08-07T11:07:58.809Z,102473.00
2022-08-07T11:14:42.126Z,102472.81
2022-08-07T11:18:42.881Z,102466.13
2022-08-07T11:23:57.745Z,102466.72
2022-08-07T11:29:13.243Z,102465.50
2022-08-07T11:34:42.411Z,102462.31
2022-08-07T11:39:59.912Z,102461.66
2022-08-07T11:45:23.801Z,102456.31
2022-08-07T11:50:58.712Z,102460.88
2022-08-07T11:56:27.238Z,102446.94
2022-08-07T12:02:17.581Z,102442.25
2022-08-07T12:07:39.084Z,102439.50
2022-08-07T12:12:47.877Z,102439.88
2022-08-07T12:17:59.333Z,102429.97
2022-08-07T12:24:05.661Z,102431.78
2022-08-07T12:29:37.923Z,102428.13
2022-08-07T12:34:49.144Z,102420.75
2022-08-07T12:39:58.624Z,102422.97
2022-08-07T12:45:09.093Z,102421.06
2022-08-07T12:50:40.197Z,102422.19
2022-08-07T12:56:04.275Z,102412.34
2022-08-07T13:01:32.179Z,102422.28
2022-08-07T13:07:00.628Z,102422.25
2022-08-07T13:12:18.659Z,102407.47
2022-08-07T13:17:40.837Z,102406.91
2022-08-07T13:22:53.700Z,102410.25
2022-08-07T13:28:11.141Z,102413.63
2022-08-07T13:34:29.942Z,102387.34
2022-08-07T13:38:49.888Z,102385.06
2022-08-07T13:44:00.296Z,102400.25
2022-08-07T13:49:08.919Z,102390.41
2022-08-07T13:54:31.127Z,102386.00
2022-08-07T13:59:39.727Z,102382.91
2022-08-07T14:04:49.634Z,102377.66
2022-08-07T14:10:16.302Z,102378.38
2022-08-07T14:16:06.197Z,102388.75
2022-08-07T14:22:03.134Z,102383.25
2022-08-07T14:26:52.618Z,102371.75
2022-08-07T14:31:57.966Z,102366.84
2022-08-07T14:37:04.071Z,102361.16
2022-08-07T14:42:19.794Z,102359.25
2022-08-07T14:47:26.369Z,102358.03
2022-08-07T14:52:33.960Z,102341.28
2022-08-07T14:57:58.648Z,102353.94
2022-08-07T15:03:00.165Z,102353.75
2022-08-07T15:08:32.252Z,102353.47
2022-08-07T15:13:37.845Z,102351.81
2022-08-07T15:18:48.536Z,102342.44
2022-08-07T15:25:13.410Z,102335.72
2022-08-07T15:30:08.695Z,102344.56
2022-08-07T15:45:55.870Z,102348.91
2022-08-07T15:51:09.558Z,102337.56
2022-08-07T15:56:14.025Z,102343.66
2022-08-07T16:01:20.549Z,102327.47
2022-08-07T16:06:50.410Z,102335.81
2022-08-07T16:12:01.672Z,102324.91
2022-08-07T16:18:02.029Z,102323.25
2022-08-07T16:23:12.283Z,102319.59
2022-08-07T16:30:05.972Z,102319.78
2022-08-07T16:34:26.915Z,102323.41
2022-08-07T16:40:06.359Z,102313.75
2022-08-07T16:46:20.959Z,102318.13
2022-08-07T16:51:57.626Z,102329.31
2022-08-07T16:56:44.492Z,102326.94
2022-08-07T17:02:12.103Z,102323.44
2022-08-07T17:07:57.942Z,102320.09
2022-08-07T17:13:16.330Z,102322.47
2022-08-07T17:18:36.780Z,102298.31
2022-08-07T17:23:52.015Z,102312.81
2022-08-07T17:29:08.286Z,102304.75
2022-08-07T17:34:34.615Z,102311.50
2022-08-07T17:39:58.436Z,102309.47
2022-08-07T17:45:17.398Z,102309.59
2022-08-07T17:50:42.226Z,102291.66
2022-08-07T17:55:55.046Z,102303.34
2022-08-07T18:01:20.760Z,102297.72
2022-08-07T18:06:37.092Z,102309.81
2022-08-07T18:12:16.822Z,102310.34
2022-08-07T18:18:39.729Z,102308.78
2022-08-07T18:23:42.959Z,102308.91
2022-08-07T18:28:59.044Z,102315.63
2022-08-07T18:34:37.760Z,102304.75
2022-08-07T18:40:18.565Z,102313.25
2022-08-07T18:46:22.379Z,102313.84
2022-08-07T18:52:33.417Z,102304.16
2022-08-07T18:57:40.241Z,102318.59
2022-08-07T19:02:52.440Z,102316.78
2022-08-07T19:08:26.519Z,102328.00
2022-08-07T19:13:50.990Z,102327.56
2022-08-07T19:19:14.368Z,102335.97
2022-08-07T19:24:30.809Z,102341.66
2022-08-07T19:30:56.893Z,102332.47
2022-08-07T19:35:11.464Z,102350.97
2022-08-07T19:40:15.687Z,102349.66
2022-08-07T19:46:06.037Z,102350.00
2022-08-07T19:50:48.723Z,102358.31
2022-08-07T19:55:58.097Z,102351.78
2022-08-07T20:01:01.806Z,102369.50
2022-08-07T20:06:06.871Z,102372.63
2022-08-07T20:11:34.129Z,102369.59
2022-08-07T20:16:47.985Z,102376.22
2022-08-07T20:21:59.472Z,102380.00
2022-08-07T20:27:07.514Z,102379.47
2022-08-07T20:32:11.442Z,102374.66
2022-08-07T20:37:34.032Z,102366.25
2022-08-07T20:42:43.178Z,102373.59
2022-08-07T20:47:56.584Z,102373.84
2022-08-07T20:52:59.715Z,102382.69
2022-08-07T20:58:04.031Z,102368.00
2022-08-07T21:03:19.113Z,102377.00
2022-08-07T21:08:37.679Z,102370.31
2022-08-07T21:14:16.567Z,102366.03
2022-08-07T21:19:13.976Z,102368.69
2022-08-07T21:24:28.673Z,102368.69
2022-08-07T21:30:10.983Z,102370.16
2022-08-07T21:36:03.759Z,102371.88
2022-08-07T21:41:10.823Z,102378.22
2022-08-07T21:46:25.318Z,102381.88
2022-08-07T21:51:51.873Z,102382.03
2022-08-07T21:57:30.909Z,102382.28
2022-08-07T22:03:16.438Z,102386.88
2022-08-07T22:08:24.725Z,102368.16
2022-08-07T22:13:51.848Z,102390.09
2022-08-07T22:19:08.293Z,102384.22
2022-08-07T22:24:17.650Z,102399.13
2022-08-07T22:29:34.069Z,102402.03
2022-08-07T22:34:58.075Z,102393.41
2022-08-07T22:40:12.290Z,102393.50
2022-08-07T22:46:04.380Z,102404.97
2022-08-07T22:51:01.638Z,102403.22
2022-08-07T22:56:08.602Z,102403.25
2022-08-07T23:01:23.339Z,102405.84
2022-08-07T23:06:40.031Z,102400.66
2022-08-07T23:12:06.419Z,102404.19
2022-08-07T23:17:41.762Z,102402.50
2022-08-07T23:23:11.786Z,102391.41
2022-08-07T23:28:34.395Z,102401.88
2022-08-07T23:34:20.670Z,102401.09
2022-08-07T23:39:17.781Z,102394.16
2022-08-07T23:44:37.593Z,102402.06
2022-08-07T23:50:01.994Z,102397.03
2022-08-07T23:55:52.617Z,102390.88
